Mir — UFPV — position and weather

sailwx.info

Track history (hours):
 
Tides and Currents Weather Stations Pressure Air Temp Water Temp Dewpoint Dewpoint Depression Visibility Wind Speed Wind Dir Waves Ship Positions

Mir (Russia)

Last reported at 2017-Nov-24 04:02 UTC. Time now 2018-Jan-21 05:08 UTC.
Position N 54°42' E 020°27'.
Warning: this ship's position is 58 days out of date.

Length 109 m; draft 6.3 m.

Type: Sailing vessel. MMSI: 273133800.

Date/timePositionNaut miles runAvg speedWind from/ knotsBaromVisibWave heightAir tempDewpointWater temp
2017-Nov-24 04:02N 54°42' E 020°27'0 3.3
2017-Nov-24 04:00N 54°42' E 020°27'13 6.6
2017-Nov-24 02:05N 54°39' E 020°05'1 8.1
2017-Nov-24 01:56N 54°39' E 020°03'3 8.1
2017-Nov-24 01:30N 54°38' E 019°57'4 7.2
2017-Nov-24 00:54N 54°40' E 019°50'3 6.0
2017-Nov-24 00:27N 54°41' E 019°46'3 6.0
2017-Nov-24 00:00N 54°42' E 019°42'2 4.6
2017-Nov-23 23:29N 54°44' E 019°39'2 4.7
2017-Nov-23 23:00N 54°45' E 019°35'2 5.0
2017-Nov-23 22:30N 54°46' E 019°31'2 4.9
2017-Nov-23 22:00N 54°46' E 019°27'2 4.8
2017-Nov-23 21:30N 54°47' E 019°23'3 5.2
2017-Nov-23 21:00N 54°47' E 019°19'1 3.0
2017-Nov-23 20:30N 54°46' E 019°20'2 4.1
2017-Nov-23 20:00N 54°45' E 019°23'2 4.2
2017-Nov-23 19:30N 54°44' E 019°26'2 4.1
2017-Nov-23 19:00N 54°42' E 019°29'5 1.4
2017-Nov-23 15:31N 54°46' E 019°23'0 2.0
2017-Nov-23 15:25N 54°46' E 019°23'1 2.0
2017-Nov-23 14:55N 54°47' E 019°21'1 2.0
2017-Nov-23 14:30N 54°47' E 019°20'1 2.3
2017-Nov-23 13:54N 54°48' E 019°19'1 2.9
2017-Nov-23 13:30N 54°49' E 019°17'6 2.9
2017-Nov-23 11:29N 54°53' E 019°10'3 2.4
2017-Nov-23 10:12N 54°55' E 019°06'0 2.5
2017-Nov-23 10:00N 54°55' E 019°05'2 4.1
2017-Nov-23 09:30N 54°57' E 019°02'2 3.0
2017-Nov-23 08:56N 54°58' E 018°60'1 1.2
2017-Nov-23 08:30N 54°58' E 018°59'1 1.9
2017-Nov-23 08:00N 54°59' E 018°58'1 2.6
2017-Nov-23 07:30N 54°59' E 018°56'2 3.7
2017-Nov-23 07:00N 54°60' E 018°53'2 3.5
2017-Nov-23 06:30N 55°01' E 018°50'2 3.5
2017-Nov-23 06:00N 55°02' E 018°47'2 3.9
2017-Nov-23 05:28N 55°02' E 018°44'2 4.0
2017-Nov-23 05:00N 55°02' E 018°40'2 4.1
2017-Nov-23 04:30N 55°03' E 018°37'2 4.0
2017-Nov-23 04:00N 55°03' E 018°33'2 4.1
2017-Nov-23 03:30N 55°03' E 018°30'2 4.3
2017-Nov-23 03:00N 55°03' E 018°26'3 4.4
2017-Nov-23 02:23N 55°04' E 018°21'2 4.5
2017-Nov-23 01:59N 55°04' E 018°18'3 4.5
2017-Nov-23 01:22N 55°04' E 018°13'5 4.6
2017-Nov-23 00:22N 55°05' E 018°05'  
2017-Nov-20 00:00N 54°43' E 015°14'6 3.6
2017-Nov-19 22:23N 54°41' E 015°05'1 3.8
2017-Nov-19 22:01N 54°40' E 015°03'84 5.7
2017-Nov-19 07:12N 54°42' E 012°38'1 6.5
2017-Nov-19 07:01N 54°42' E 012°36'3 6.4
2017-Nov-19 06:29N 54°40' E 012°31'4 6.5
2017-Nov-19 05:54N 54°38' E 012°26'3 6.4
2017-Nov-19 05:30N 54°36' E 012°22'6 5.6
2017-Nov-19 04:22N 54°31' E 012°17'9 5.1
2017-Nov-19 02:31N 54°24' E 012°05'0 6.3
2017-Nov-19 02:30N 54°24' E 012°05'3 6.2
2017-Nov-19 02:00N 54°24' E 011°60'3 6.2
2017-Nov-19 01:30N 54°24' E 011°54'5 6.5
2017-Nov-19 00:42N 54°24' E 011°46'1 6.7
2017-Nov-19 00:30N 54°25' E 011°44'3 6.1
2017-Nov-19 00:01N 54°27' E 011°39'3 5.8
2017-Nov-18 23:30N 54°28' E 011°35'3 5.7
2017-Nov-18 23:00N 54°29' E 011°30'4 6.4
2017-Nov-18 22:28N 54°31' E 011°25'3 6.5
2017-Nov-18 22:00N 54°32' E 011°20'3 5.9
2017-Nov-18 21:30N 54°33' E 011°16'3 6.0
2017-Nov-18 21:00N 54°35' E 011°11'3 6.4
2017-Nov-18 20:30N 54°36' E 011°06'3 6.1
2017-Nov-18 20:01N 54°38' E 011°02'3 6.6
2017-Nov-18 19:31N 54°40' E 010°57'3 6.2
2017-Nov-18 19:00N 54°42' E 010°53'2 4.7
2017-Nov-18 18:30N 54°44' E 010°52'3 5.0
2017-Nov-18 18:00N 54°47' E 010°52'3 6.1
2017-Nov-18 17:30N 54°50' E 010°52'3 6.2
2017-Nov-18 17:00N 54°53' E 010°53'3 5.6
2017-Nov-18 16:30N 54°55' E 010°54'3 5.4
2017-Nov-18 16:00N 54°57' E 010°57'3 5.5
2017-Nov-18 15:30N 54°59' E 011°00'3 5.8
2017-Nov-18 15:00N 55°02' E 011°01'3 5.9
2017-Nov-18 14:30N 55°05' E 011°02'3 6.3
2017-Nov-18 14:00N 55°08' E 011°03'3 5.7
2017-Nov-18 13:31N 55°11' E 011°04'3 5.4
2017-Nov-18 12:55N 55°14' E 011°06'106 3.8
2017-Nov-17 08:57N 56°58' E 011°44'2 4.7
2017-Nov-17 08:30N 57°00' E 011°43'2 4.7
2017-Nov-17 08:00N 57°02' E 011°41'2 4.9
2017-Nov-17 07:30N 57°04' E 011°39'3 5.4
2017-Nov-17 07:00N 57°07' E 011°38'3 5.4
2017-Nov-17 06:30N 57°10' E 011°36'3 5.1
2017-Nov-17 06:00N 57°12' E 011°34'3 5.0
2017-Nov-17 05:30N 57°14' E 011°32'3 5.3
2017-Nov-17 05:00N 57°17' E 011°31'3 5.6
2017-Nov-17 04:29N 57°19' E 011°29'3 5.5
2017-Nov-17 04:00N 57°22' E 011°27'3 5.6
2017-Nov-17 03:31N 57°25' E 011°25'3 5.6
2017-Nov-17 03:00N 57°27' E 011°23'3 6.1
2017-Nov-17 02:30N 57°30' E 011°20'3 6.5
2017-Nov-17 02:00N 57°32' E 011°16'3 6.0
2017-Nov-17 01:30N 57°35' E 011°13'3 5.8
2017-Nov-17 01:00N 57°37' E 011°11'3 6.3
2017-Nov-17 00:30N 57°40' E 011°08'3 6.3
2017-Nov-17 00:00N 57°43' E 011°05'3 6.1
2017-Nov-16 23:30N 57°45' E 011°02'3 6.0
2017-Nov-16 23:00N 57°48' E 010°58'3 6.4
2017-Nov-16 22:29N 57°50' E 010°55'3 6.1
2017-Nov-16 22:00N 57°52' E 010°51'3 6.1
2017-Nov-16 21:29N 57°55' E 010°47'3 6.2
2017-Nov-16 21:00N 57°57' E 010°43'6 6.7
2017-Nov-16 20:11N 57°57' E 010°33'1 6.5
2017-Nov-16 20:00N 57°57' E 010°31'327 7.6
2017-Nov-15 01:12N 53°45' E 004°20'2 8.8
2017-Nov-15 00:59N 53°44' E 004°18'9 8.6
2017-Nov-14 23:59N 53°39' E 004°06'28 8.0
2017-Nov-14 20:31N 53°17' E 003°36'0 8.0
2017-Nov-14 20:29N 53°17' E 003°36'91 7.1
2017-Nov-14 07:40N 51°52' E 002°42'15 5.9
2017-Nov-14 05:03N 51°40' E 002°27'1 5.2
2017-Nov-14 04:56N 51°39' E 002°27'2 5.0
2017-Nov-14 04:29N 51°38' E 002°25'  
Track history (hours):
 
Tides and Currents Weather Stations Pressure Air Temp Water Temp Dewpoint Dewpoint Depression Visibility Wind Speed Wind Dir Waves Ship Positions

Mir (Russia)

Last reported at 2017-Nov-24 04:02 UTC. Time now 2018-Jan-21 05:08 UTC.
Position N 54°42' E 020°27'.
Warning: this ship's position is 58 days out of date.

Length 109 m; draft 6.3 m.

Type: Sailing vessel. MMSI: 273133800.

Date/timePositionNaut miles runAvg speedWind from/ knotsBaromVisibWave heightAir tempDewpointWater temp
2017-Nov-24 04:02N 54°42' E 020°27'0 3.3
2017-Nov-24 04:00N 54°42' E 020°27'13 6.6
2017-Nov-24 02:05N 54°39' E 020°05'1 8.1
2017-Nov-24 01:56N 54°39' E 020°03'3 8.1
2017-Nov-24 01:30N 54°38' E 019°57'4 7.2
2017-Nov-24 00:54N 54°40' E 019°50'3 6.0
2017-Nov-24 00:27N 54°41' E 019°46'3 6.0
2017-Nov-24 00:00N 54°42' E 019°42'2 4.6
2017-Nov-23 23:29N 54°44' E 019°39'2 4.7
2017-Nov-23 23:00N 54°45' E 019°35'2 5.0
2017-Nov-23 22:30N 54°46' E 019°31'2 4.9
2017-Nov-23 22:00N 54°46' E 019°27'2 4.8
2017-Nov-23 21:30N 54°47' E 019°23'3 5.2
2017-Nov-23 21:00N 54°47' E 019°19'1 3.0
2017-Nov-23 20:30N 54°46' E 019°20'2 4.1
2017-Nov-23 20:00N 54°45' E 019°23'2 4.2
2017-Nov-23 19:30N 54°44' E 019°26'2 4.1
2017-Nov-23 19:00N 54°42' E 019°29'5 1.4
2017-Nov-23 15:31N 54°46' E 019°23'0 2.0
2017-Nov-23 15:25N 54°46' E 019°23'1 2.0
2017-Nov-23 14:55N 54°47' E 019°21'1 2.0
2017-Nov-23 14:30N 54°47' E 019°20'1 2.3
2017-Nov-23 13:54N 54°48' E 019°19'1 2.9
2017-Nov-23 13:30N 54°49' E 019°17'6 2.9
2017-Nov-23 11:29N 54°53' E 019°10'3 2.4
2017-Nov-23 10:12N 54°55' E 019°06'0 2.5
2017-Nov-23 10:00N 54°55' E 019°05'2 4.1
2017-Nov-23 09:30N 54°57' E 019°02'2 3.0
2017-Nov-23 08:56N 54°58' E 018°60'1 1.2
2017-Nov-23 08:30N 54°58' E 018°59'1 1.9
2017-Nov-23 08:00N 54°59' E 018°58'1 2.6
2017-Nov-23 07:30N 54°59' E 018°56'2 3.7
2017-Nov-23 07:00N 54°60' E 018°53'2 3.5
2017-Nov-23 06:30N 55°01' E 018°50'2 3.5
2017-Nov-23 06:00N 55°02' E 018°47'2 3.9
2017-Nov-23 05:28N 55°02' E 018°44'2 4.0
2017-Nov-23 05:00N 55°02' E 018°40'2 4.1
2017-Nov-23 04:30N 55°03' E 018°37'2 4.0
2017-Nov-23 04:00N 55°03' E 018°33'2 4.1
2017-Nov-23 03:30N 55°03' E 018°30'2 4.3
2017-Nov-23 03:00N 55°03' E 018°26'3 4.4
2017-Nov-23 02:23N 55°04' E 018°21'2 4.5
2017-Nov-23 01:59N 55°04' E 018°18'3 4.5
2017-Nov-23 01:22N 55°04' E 018°13'5 4.6
2017-Nov-23 00:22N 55°05' E 018°05'  
2017-Nov-20 00:00N 54°43' E 015°14'6 3.6
2017-Nov-19 22:23N 54°41' E 015°05'1 3.8
2017-Nov-19 22:01N 54°40' E 015°03'84 5.7
2017-Nov-19 07:12N 54°42' E 012°38'1 6.5
2017-Nov-19 07:01N 54°42' E 012°36'3 6.4
2017-Nov-19 06:29N 54°40' E 012°31'4 6.5
2017-Nov-19 05:54N 54°38' E 012°26'3 6.4
2017-Nov-19 05:30N 54°36' E 012°22'6 5.6
2017-Nov-19 04:22N 54°31' E 012°17'9 5.1
2017-Nov-19 02:31N 54°24' E 012°05'0 6.3
2017-Nov-19 02:30N 54°24' E 012°05'3 6.2
2017-Nov-19 02:00N 54°24' E 011°60'3 6.2
2017-Nov-19 01:30N 54°24' E 011°54'5 6.5
2017-Nov-19 00:42N 54°24' E 011°46'1 6.7
2017-Nov-19 00:30N 54°25' E 011°44'3 6.1
2017-Nov-19 00:01N 54°27' E 011°39'3 5.8
2017-Nov-18 23:30N 54°28' E 011°35'3 5.7
2017-Nov-18 23:00N 54°29' E 011°30'4 6.4
2017-Nov-18 22:28N 54°31' E 011°25'3 6.5
2017-Nov-18 22:00N 54°32' E 011°20'3 5.9
2017-Nov-18 21:30N 54°33' E 011°16'3 6.0
2017-Nov-18 21:00N 54°35' E 011°11'3 6.4
2017-Nov-18 20:30N 54°36' E 011°06'3 6.1
2017-Nov-18 20:01N 54°38' E 011°02'3 6.6
2017-Nov-18 19:31N 54°40' E 010°57'3 6.2
2017-Nov-18 19:00N 54°42' E 010°53'2 4.7
2017-Nov-18 18:30N 54°44' E 010°52'3 5.0
2017-Nov-18 18:00N 54°47' E 010°52'3 6.1
2017-Nov-18 17:30N 54°50' E 010°52'3 6.2
2017-Nov-18 17:00N 54°53' E 010°53'3 5.6
2017-Nov-18 16:30N 54°55' E 010°54'3 5.4
2017-Nov-18 16:00N 54°57' E 010°57'3 5.5
2017-Nov-18 15:30N 54°59' E 011°00'3 5.8
2017-Nov-18 15:00N 55°02' E 011°01'3 5.9
2017-Nov-18 14:30N 55°05' E 011°02'3 6.3
2017-Nov-18 14:00N 55°08' E 011°03'3 5.7
2017-Nov-18 13:31N 55°11' E 011°04'3 5.4
2017-Nov-18 12:55N 55°14' E 011°06'106 3.8
2017-Nov-17 08:57N 56°58' E 011°44'2 4.7
2017-Nov-17 08:30N 57°00' E 011°43'2 4.7
2017-Nov-17 08:00N 57°02' E 011°41'2 4.9
2017-Nov-17 07:30N 57°04' E 011°39'3 5.4
2017-Nov-17 07:00N 57°07' E 011°38'3 5.4
2017-Nov-17 06:30N 57°10' E 011°36'3 5.1
2017-Nov-17 06:00N 57°12' E 011°34'3 5.0
2017-Nov-17 05:30N 57°14' E 011°32'3 5.3
2017-Nov-17 05:00N 57°17' E 011°31'3 5.6
2017-Nov-17 04:29N 57°19' E 011°29'3 5.5
2017-Nov-17 04:00N 57°22' E 011°27'3 5.6
2017-Nov-17 03:31N 57°25' E 011°25'3 5.6
2017-Nov-17 03:00N 57°27' E 011°23'3 6.1
2017-Nov-17 02:30N 57°30' E 011°20'3 6.5
2017-Nov-17 02:00N 57°32' E 011°16'3 6.0
2017-Nov-17 01:30N 57°35' E 011°13'3 5.8
2017-Nov-17 01:00N 57°37' E 011°11'3 6.3
2017-Nov-17 00:30N 57°40' E 011°08'3 6.3
2017-Nov-17 00:00N 57°43' E 011°05'3 6.1
2017-Nov-16 23:30N 57°45' E 011°02'3 6.0
2017-Nov-16 23:00N 57°48' E 010°58'3 6.4
2017-Nov-16 22:29N 57°50' E 010°55'3 6.1
2017-Nov-16 22:00N 57°52' E 010°51'3 6.1
2017-Nov-16 21:29N 57°55' E 010°47'3 6.2
2017-Nov-16 21:00N 57°57' E 010°43'6 6.7
2017-Nov-16 20:11N 57°57' E 010°33'1 6.5
2017-Nov-16 20:00N 57°57' E 010°31'327 7.6
2017-Nov-15 01:12N 53°45' E 004°20'2 8.8
2017-Nov-15 00:59N 53°44' E 004°18'9 8.6
2017-Nov-14 23:59N 53°39' E 004°06'28 8.0
2017-Nov-14 20:31N 53°17' E 003°36'0 8.0
2017-Nov-14 20:29N 53°17' E 003°36'91 7.1
2017-Nov-14 07:40N 51°52' E 002°42'15 5.9
2017-Nov-14 05:03N 51°40' E 002°27'1 5.2
2017-Nov-14 04:56N 51°39' E 002°27'2 5.0
2017-Nov-14 04:29N 51°38' E 002°25'  

Dump ship's entire track history